createdAt,value
2024-04-13T00:00:32.010Z,97.65
2024-04-13T00:01:31.950Z,98.02
2024-04-13T00:02:31.989Z,96.84
2024-04-13T00:03:32.168Z,98.06
2024-04-13T00:04:32.149Z,98.46
2024-04-13T00:05:32.228Z,96.60
2024-04-13T00:06:32.404Z,97.14
2024-04-13T00:07:32.387Z,99.91
2024-04-13T00:08:32.453Z,98.65
2024-04-13T00:09:32.549Z,98.87
2024-04-13T00:10:32.613Z,98.51
2024-04-13T00:11:32.704Z,97.96
2024-04-13T00:12:32.854Z,96.85
2024-04-13T00:13:32.865Z,96.36
2024-04-13T00:14:33.023Z,98.74
2024-04-13T00:15:33.210Z,97.67
2024-04-13T00:16:33.131Z,96.52
2024-04-13T00:17:33.331Z,97.43
2024-04-13T00:18:33.329Z,96.84
2024-04-13T00:19:33.313Z,97.40
2024-04-13T00:20:33.452Z,97.49
2024-04-13T00:21:33.522Z,96.38
2024-04-13T00:22:33.593Z,98.31
2024-04-13T00:23:33.665Z,98.72
2024-04-13T00:24:33.906Z,96.99
2024-04-13T00:25:33.801Z,97.23
2024-04-13T00:26:33.893Z,96.72
2024-04-13T00:27:33.996Z,97.94
2024-04-13T00:28:34.029Z,98.60
2024-04-13T00:29:34.099Z,98.94
2024-04-13T00:30:34.321Z,95.84
2024-04-13T00:31:34.369Z,96.74
2024-04-13T00:32:34.560Z,97.01
2024-04-13T00:33:34.511Z,96.82
2024-04-13T00:34:34.514Z,96.85
2024-04-13T00:35:34.584Z,97.06
2024-04-13T00:36:34.747Z,99.22
2024-04-13T00:37:34.751Z,98.15
2024-04-13T00:38:34.829Z,98.03
2024-04-13T00:39:35.027Z,96.21
2024-04-13T00:40:35.000Z,96.52
2024-04-13T00:41:35.070Z,96.96
2024-04-13T00:42:35.174Z,97.52
2024-04-13T00:43:35.231Z,95.70
2024-04-13T00:44:35.302Z,95.55
2024-04-13T00:45:35.496Z,96.52
2024-04-13T00:46:35.446Z,96.76
2024-04-13T00:47:35.589Z,95.70
2024-04-13T00:48:35.789Z,96.99
2024-04-13T00:49:35.708Z,97.25
2024-04-13T00:50:35.798Z,96.23
2024-04-13T00:51:36.035Z,97.36
2024-04-13T00:52:35.938Z,96.82
2024-04-13T00:53:36.019Z,97.34
2024-04-13T00:54:36.104Z,97.39
2024-04-13T00:55:36.176Z,94.90
2024-04-13T00:56:36.236Z,97.78
2024-04-13T00:57:36.399Z,96.44
2024-04-13T00:58:36.399Z,95.70
2024-04-13T00:59:39.424Z,96.52
2024-04-13T01:00:36.635Z,96.57
2024-04-13T01:01:36.508Z,96.72
2024-04-13T01:02:36.482Z,96.32
2024-04-13T01:03:36.893Z,97.04
2024-04-13T01:04:36.483Z,95.45
2024-04-13T01:05:36.486Z,96.79
2024-04-13T01:06:36.552Z,96.00
2024-04-13T01:07:36.495Z,96.32
2024-04-13T01:08:36.500Z,97.05
2024-04-13T01:09:36.568Z,95.79
2024-04-13T01:10:36.508Z,94.78
2024-04-13T01:11:36.574Z,96.93
2024-04-13T01:12:36.589Z,94.50
2024-04-13T01:13:36.524Z,98.26
2024-04-13T01:14:36.518Z,95.35
2024-04-13T01:15:36.570Z,96.02
2024-04-13T01:16:36.536Z,95.16
2024-04-13T01:17:36.593Z,96.66
2024-04-13T01:18:36.672Z,95.50
2024-04-13T01:19:36.620Z,95.13
2024-04-13T01:20:36.697Z,96.43
2024-04-13T01:21:37.329Z,95.53
2024-04-13T01:22:36.806Z,95.05
2024-04-13T01:23:36.898Z,94.34
2024-04-13T01:24:37.019Z,93.88
2024-04-13T01:25:36.938Z,95.33
2024-04-13T01:26:36.975Z,94.48
2024-04-13T01:27:37.048Z,96.08
2024-04-13T01:28:37.046Z,94.27
2024-04-13T01:29:37.102Z,94.86
2024-04-13T01:30:37.201Z,95.80
2024-04-13T01:31:37.216Z,93.90
2024-04-13T01:32:37.256Z,93.32
2024-04-13T01:33:37.314Z,93.79
2024-04-13T01:34:37.302Z,93.31
2024-04-13T01:35:37.361Z,95.73
2024-04-13T01:36:37.513Z,94.17
2024-04-13T01:37:37.418Z,93.72
2024-04-13T01:38:37.444Z,94.63
2024-04-13T01:39:37.543Z,94.52
2024-04-13T01:40:37.565Z,93.88
2024-04-13T01:41:37.966Z,95.46
2024-04-13T01:42:37.833Z,95.24
2024-04-13T01:43:37.847Z,92.73
2024-04-13T01:44:37.779Z,92.93
2024-04-13T01:45:37.898Z,93.10
2024-04-13T01:46:37.947Z,94.51
2024-04-13T01:47:38.104Z,93.54
2024-04-13T01:48:38.187Z,94.42
2024-04-13T01:49:38.172Z,92.92
2024-04-13T01:50:38.285Z,92.37
2024-04-13T01:51:38.443Z,92.34
2024-04-13T01:52:38.429Z,95.39
2024-04-13T01:53:38.516Z,94.19
2024-04-13T01:54:38.634Z,93.83
2024-04-13T01:55:38.698Z,92.70
2024-04-13T01:56:38.763Z,93.69
2024-04-13T01:57:38.844Z,94.30
2024-04-13T01:58:38.900Z,93.70
2024-04-13T01:59:38.993Z,91.93
2024-04-13T02:00:39.151Z,94.49
2024-04-13T02:01:39.181Z,92.85
2024-04-13T02:02:39.242Z,94.48
2024-04-13T02:03:39.711Z,92.96
2024-04-13T02:04:39.402Z,94.36
2024-04-13T02:05:39.460Z,92.82
2024-04-13T02:06:39.623Z,92.13
2024-04-13T02:07:39.662Z,92.61
2024-04-13T02:08:39.737Z,92.83
2024-04-13T02:09:39.890Z,95.13
2024-04-13T02:10:39.883Z,92.30
2024-04-13T02:11:39.986Z,91.43
2024-04-13T02:12:40.105Z,91.81
2024-04-13T02:13:40.140Z,95.09
2024-04-13T02:14:40.229Z,93.24
2024-04-13T02:15:40.366Z,92.24
2024-04-13T02:16:40.365Z,93.06
2024-04-13T02:17:40.511Z,91.44
2024-04-13T02:18:40.690Z,91.05
2024-04-13T02:19:40.778Z,91.57
2024-04-13T02:20:40.694Z,90.66
2024-04-13T02:21:40.830Z,92.58
2024-04-13T02:22:40.891Z,94.61
2024-04-13T02:23:40.986Z,93.43
2024-04-13T02:24:41.149Z,91.92
2024-04-13T02:25:41.114Z,90.91
2024-04-13T02:26:41.210Z,92.64
2024-04-13T02:27:41.293Z,90.53
2024-04-13T02:28:41.348Z,91.27
2024-04-13T02:29:41.446Z,91.81
2024-04-13T02:30:41.586Z,93.03
2024-04-13T02:31:41.639Z,91.81
2024-04-13T02:32:41.839Z,92.88
2024-04-13T02:33:41.871Z,90.72
2024-04-13T02:34:41.865Z,93.78
2024-04-13T02:35:41.937Z,91.80
2024-04-13T02:36:42.073Z,93.31
2024-04-13T02:37:42.214Z,91.60
2024-04-13T02:38:42.179Z,91.84
2024-04-13T02:39:42.293Z,91.82
2024-04-13T02:40:42.349Z,91.63
2024-04-13T02:41:42.430Z,91.58
2024-04-13T02:42:42.552Z,91.22
2024-04-13T02:43:42.597Z,92.54
2024-04-13T02:44:42.677Z,90.47
2024-04-13T02:45:42.784Z,92.22
2024-04-13T02:46:42.871Z,92.06
2024-04-13T02:47:42.992Z,91.16
2024-04-13T02:48:43.334Z,92.50
2024-04-13T02:49:43.103Z,91.81
2024-04-13T02:50:43.167Z,89.33
2024-04-13T02:51:43.263Z,91.40
2024-04-13T02:52:43.329Z,90.24
2024-04-13T02:53:43.427Z,91.22
2024-04-13T02:54:43.551Z,92.07
2024-04-13T02:55:43.588Z,90.86
2024-04-13T02:56:43.665Z,91.37
2024-04-13T02:57:43.845Z,92.29
2024-04-13T02:58:43.831Z,91.55
2024-04-13T02:59:43.934Z,88.69
2024-04-13T03:00:44.067Z,90.71
2024-04-13T03:01:44.094Z,90.65
2024-04-13T03:02:44.213Z,92.90
2024-04-13T03:03:44.325Z,92.13
2024-04-13T03:04:44.324Z,89.06
2024-04-13T03:05:45.234Z,89.25
2024-04-13T03:06:44.523Z,88.28
2024-04-13T03:07:44.594Z,89.36
2024-04-13T03:08:44.678Z,89.16
2024-04-13T03:09:44.806Z,90.88
2024-04-13T03:10:44.823Z,90.38
2024-04-13T03:11:44.927Z,89.73
2024-04-13T03:12:45.034Z,88.51
2024-04-13T03:13:45.085Z,89.08
2024-04-13T03:14:45.172Z,89.17
2024-04-13T03:15:45.257Z,89.60
2024-04-13T03:16:45.360Z,90.88
2024-04-13T03:17:45.469Z,89.37
2024-04-13T03:18:45.980Z,89.65
2024-04-13T03:19:45.591Z,90.78
2024-04-13T03:20:45.696Z,88.24
2024-04-13T03:21:46.312Z,90.85
2024-04-13T03:22:45.860Z,89.69
2024-04-13T03:23:45.928Z,90.35
2024-04-13T03:24:46.014Z,89.26
2024-04-13T03:25:46.098Z,89.18
2024-04-13T03:26:46.197Z,87.51
2024-04-13T03:27:46.278Z,90.15
2024-04-13T03:28:46.360Z,87.72
2024-04-13T03:29:46.433Z,90.02
2024-04-13T03:30:46.538Z,88.02
2024-04-13T03:31:46.595Z,90.59
2024-04-13T03:32:46.795Z,87.67
2024-04-13T03:33:46.843Z,87.58
2024-04-13T03:34:46.868Z,86.67
2024-04-13T03:35:46.968Z,87.36
2024-04-13T03:36:47.050Z,87.56
2024-04-13T03:37:47.100Z,87.44
2024-04-13T03:38:47.182Z,87.04
2024-04-13T03:39:47.324Z,87.33
2024-04-13T03:40:47.360Z,86.08
2024-04-13T03:41:47.465Z,87.47
2024-04-13T03:42:47.544Z,87.11
2024-04-13T03:43:47.602Z,87.68
2024-04-13T03:44:47.684Z,88.38
2024-04-13T03:45:47.820Z,86.17
2024-04-13T03:46:47.870Z,88.72
2024-04-13T03:47:48.094Z,88.55
2024-04-13T03:48:48.174Z,87.35
2024-04-13T03:49:48.148Z,88.38
2024-04-13T03:50:48.230Z,88.54
2024-04-13T03:51:48.333Z,88.29
2024-04-13T03:52:48.404Z,87.96
2024-04-13T03:53:48.487Z,84.54
2024-04-13T03:54:48.553Z,87.77
2024-04-13T03:55:48.618Z,88.18
2024-04-13T03:56:48.744Z,86.47
2024-04-13T03:57:48.823Z,86.97
2024-04-13T03:58:48.910Z,87.00
2024-04-13T03:59:49.000Z,86.91
2024-04-13T04:00:49.118Z,84.70
2024-04-13T04:01:49.176Z,85.96
2024-04-13T04:02:49.222Z,86.11
2024-04-13T04:03:49.397Z,87.40
2024-04-13T04:04:49.404Z,87.86
2024-04-13T04:05:49.479Z,86.35
2024-04-13T04:06:49.657Z,84.67
2024-04-13T04:07:49.673Z,88.42
2024-04-13T04:08:49.776Z,85.62
2024-04-13T04:09:49.850Z,86.28
2024-04-13T04:10:49.924Z,88.10
2024-04-13T04:11:50.039Z,84.99
2024-04-13T04:12:50.107Z,86.08
2024-04-13T04:13:50.192Z,86.29
2024-04-13T04:14:50.270Z,84.65
2024-04-13T04:15:50.372Z,86.91
2024-04-13T04:16:50.774Z,85.74
2024-04-13T04:17:50.593Z,85.00
2024-04-13T04:18:50.713Z,86.55
2024-04-13T04:19:50.704Z,85.70
2024-04-13T04:20:50.797Z,88.34
2024-04-13T04:21:50.889Z,83.97
2024-04-13T04:22:50.937Z,84.46
2024-04-13T04:23:51.033Z,83.44
2024-04-13T04:24:51.107Z,84.46
2024-04-13T04:25:51.225Z,84.21
2024-04-13T04:26:51.312Z,84.79
2024-04-13T04:27:51.385Z,84.64
2024-04-13T04:28:51.445Z,84.04
2024-04-13T04:29:51.546Z,83.96
2024-04-13T04:30:51.602Z,86.18
2024-04-13T04:31:51.712Z,86.07
2024-04-13T04:32:51.947Z,83.22
2024-04-13T04:33:51.929Z,84.94
2024-04-13T04:34:51.925Z,85.46
2024-04-13T04:35:52.000Z,84.72
2024-04-13T04:36:52.118Z,84.59
2024-04-13T04:37:52.181Z,83.98
2024-04-13T04:38:52.269Z,84.79
2024-04-13T04:39:52.346Z,81.22
2024-04-13T04:40:52.449Z,85.40
2024-04-13T04:41:52.532Z,83.46
2024-04-13T04:42:52.615Z,83.77
2024-04-13T04:43:59.890Z,50.00
2024-04-13T04:44:59.889Z,50.00
2024-04-13T04:45:59.900Z,50.00
2024-04-13T04:46:59.906Z,50.00
2024-04-13T04:47:59.903Z,50.00
2024-04-13T04:48:59.888Z,54.08
2024-04-13T04:49:59.878Z,52.23
2024-04-13T04:50:59.910Z,50.00
2024-04-13T04:51:59.901Z,54.28
2024-04-13T04:52:59.907Z,52.81
2024-04-13T04:53:59.884Z,51.04
2024-04-13T04:54:59.908Z,54.74
2024-04-13T04:55:59.904Z,52.05
2024-04-13T04:56:59.910Z,54.75
2024-04-13T04:57:59.905Z,50.32
2024-04-13T04:58:59.906Z,52.60
2024-04-13T04:59:59.925Z,53.23
2024-04-13T05:00:59.968Z,52.59
2024-04-13T05:02:00.384Z,50.81
2024-04-13T05:02:59.919Z,52.57
2024-04-13T05:03:59.968Z,51.38
2024-04-13T05:04:59.914Z,51.48
2024-04-13T05:05:59.925Z,55.43
2024-04-13T05:06:59.918Z,52.36
2024-04-13T05:08:00.174Z,51.97
2024-04-13T05:08:59.931Z,52.27
2024-04-13T05:09:59.930Z,51.93
2024-04-13T05:11:00.039Z,53.68
2024-04-13T05:11:59.944Z,52.73
2024-04-13T05:12:59.951Z,55.11
2024-04-13T05:13:59.978Z,52.32
2024-04-13T05:15:00.066Z,52.80
2024-04-13T05:16:00.155Z,50.89
2024-04-13T05:17:00.222Z,50.51
2024-04-13T05:18:00.455Z,52.27
2024-04-13T05:19:00.534Z,56.13
2024-04-13T05:20:00.502Z,54.34
2024-04-13T05:21:00.567Z,52.21
2024-04-13T05:22:00.653Z,54.01
2024-04-13T05:23:00.723Z,51.47
2024-04-13T05:24:00.781Z,52.84
2024-04-13T05:25:00.898Z,54.32
2024-04-13T05:26:00.978Z,53.59
2024-04-13T05:27:01.069Z,53.46
2024-04-13T05:28:01.159Z,52.07
2024-04-13T05:29:01.217Z,53.32
2024-04-13T05:30:01.329Z,53.97
2024-04-13T05:31:01.393Z,51.36
2024-04-13T05:32:01.504Z,50.93
2024-04-13T05:33:01.675Z,53.11
2024-04-13T05:34:01.659Z,52.90
2024-04-13T05:35:01.719Z,52.65
2024-04-13T05:36:04.673Z,52.55
2024-04-13T05:37:01.842Z,54.43
2024-04-13T05:38:01.830Z,53.19
2024-04-13T05:39:01.822Z,52.11
2024-04-13T05:40:01.840Z,53.81
2024-04-13T05:41:01.808Z,52.87
2024-04-13T05:42:01.812Z,50.63
2024-04-13T05:43:01.822Z,54.23
2024-04-13T05:44:01.830Z,52.42
2024-04-13T05:45:01.863Z,54.47
2024-04-13T05:46:01.815Z,52.47
2024-04-13T05:47:01.836Z,51.58
2024-04-13T05:48:01.880Z,51.46
2024-04-13T05:49:01.839Z,51.52
2024-04-13T05:50:01.862Z,50.00
2024-04-13T05:51:01.850Z,55.59
2024-04-13T05:52:01.816Z,52.38
2024-04-13T05:53:01.820Z,54.59
2024-04-13T05:54:01.831Z,55.16
2024-04-13T05:55:01.853Z,52.94
2024-04-13T05:56:01.838Z,52.66
2024-04-13T05:57:01.894Z,51.50
2024-04-13T05:58:01.855Z,52.76
2024-04-13T05:59:01.873Z,53.37
2024-04-13T06:00:01.863Z,53.97
2024-04-13T06:01:01.981Z,55.93
2024-04-13T06:02:01.874Z,54.16
2024-04-13T06:03:01.902Z,53.58
2024-04-13T06:04:01.886Z,50.73
2024-04-13T06:05:01.873Z,53.83
2024-04-13T06:06:01.884Z,52.58
2024-04-13T06:07:01.904Z,51.33
2024-04-13T06:08:01.896Z,54.56
2024-04-13T06:09:01.885Z,52.61
2024-04-13T06:10:01.897Z,51.01
2024-04-13T06:11:01.939Z,50.84
2024-04-13T06:12:01.889Z,52.27
2024-04-13T06:13:01.906Z,52.67
2024-04-13T06:14:01.891Z,51.69
2024-04-13T06:15:01.900Z,51.21
2024-04-13T06:16:01.993Z,53.90
2024-04-13T06:17:02.072Z,52.11
2024-04-13T06:18:02.196Z,51.38
2024-04-13T06:19:03.627Z,50.47
2024-04-13T06:20:02.283Z,52.08
2024-04-13T06:21:02.331Z,50.00
2024-04-13T06:22:02.382Z,55.50
2024-04-13T06:23:02.427Z,54.92
2024-04-13T06:24:02.462Z,55.47
2024-04-13T06:25:02.508Z,53.84
2024-04-13T06:26:02.538Z,52.53
2024-04-13T06:27:02.568Z,56.41
2024-04-13T06:28:02.687Z,51.37
2024-04-13T06:29:02.664Z,52.52
2024-04-13T06:30:02.714Z,51.78
2024-04-13T06:31:02.936Z,52.03
2024-04-13T06:32:02.891Z,53.84
2024-04-13T06:33:03.045Z,52.18
2024-04-13T06:34:03.223Z,53.38
2024-04-13T06:35:03.203Z,50.47
2024-04-13T06:36:03.239Z,52.90
2024-04-13T06:37:03.382Z,52.29
2024-04-13T06:38:03.372Z,53.34
2024-04-13T06:39:03.450Z,54.33
2024-04-13T06:40:03.530Z,51.29
2024-04-13T06:41:03.619Z,53.29
2024-04-13T06:42:03.709Z,50.34
2024-04-13T06:43:03.786Z,50.00
2024-04-13T06:44:03.844Z,50.84
2024-04-13T06:45:03.938Z,51.11
2024-04-13T06:46:04.057Z,52.30
2024-04-13T06:47:04.134Z,51.15
2024-04-13T06:48:04.243Z,52.59
2024-04-13T06:49:04.280Z,51.77
2024-04-13T06:50:04.411Z,51.73
2024-04-13T06:51:04.403Z,52.02
2024-04-13T06:52:04.508Z,54.29
2024-04-13T06:53:04.573Z,51.20
2024-04-13T06:54:04.647Z,54.27
2024-04-13T06:55:04.714Z,53.72
2024-04-13T06:56:04.801Z,52.61
2024-04-13T06:57:04.911Z,54.56
2024-04-13T06:58:04.970Z,50.95
2024-04-13T06:59:05.028Z,52.06
2024-04-13T07:00:05.128Z,51.75
2024-04-13T07:01:05.286Z,53.80
2024-04-13T07:02:05.282Z,53.16
2024-04-13T07:03:05.661Z,50.01
2024-04-13T07:04:05.461Z,52.56
2024-04-13T07:05:05.403Z,54.32
2024-04-13T07:06:05.423Z,53.71
2024-04-13T07:07:05.468Z,52.84
2024-04-13T07:08:05.511Z,51.75
2024-04-13T07:09:05.568Z,51.73
2024-04-13T07:10:05.819Z,53.26
2024-04-13T07:11:05.645Z,51.38
2024-04-13T07:12:08.730Z,51.71
2024-04-13T07:13:05.665Z,51.90
2024-04-13T07:14:05.678Z,51.88
2024-04-13T07:15:05.649Z,51.74
2024-04-13T07:16:05.665Z,52.70
2024-04-13T07:17:05.691Z,53.62
2024-04-13T07:18:05.734Z,52.07
2024-04-13T07:19:05.680Z,50.82
2024-04-13T07:20:05.673Z,53.93
2024-04-13T07:21:05.675Z,51.83
2024-04-13T07:22:05.688Z,51.70
2024-04-13T07:23:05.732Z,52.25
2024-04-13T07:24:05.709Z,52.34
2024-04-13T07:25:05.732Z,51.89
2024-04-13T07:26:05.745Z,52.58
2024-04-13T07:27:05.727Z,50.03
2024-04-13T07:28:05.732Z,53.07
2024-04-13T07:29:05.731Z,52.27
2024-04-13T07:30:05.756Z,53.18
2024-04-13T07:31:05.815Z,52.88
2024-04-13T07:32:05.921Z,53.61
2024-04-13T07:33:06.049Z,53.70
2024-04-13T07:34:06.084Z,55.16
2024-04-13T07:35:06.110Z,53.55
2024-04-13T07:36:06.199Z,54.58
2024-04-13T07:37:06.259Z,57.07
2024-04-13T07:38:06.302Z,54.64
2024-04-13T07:39:06.415Z,54.14
2024-04-13T07:40:06.582Z,54.78
2024-04-13T07:41:06.569Z,55.15
2024-04-13T07:42:06.557Z,53.90
2024-04-13T07:43:06.724Z,52.99
2024-04-13T07:44:06.797Z,53.89
2024-04-13T07:45:06.793Z,52.03
2024-04-13T07:46:06.830Z,52.04
2024-04-13T07:47:06.883Z,50.00
2024-04-13T07:48:07.066Z,52.84
2024-04-13T07:49:07.154Z,52.83
2024-04-13T07:50:07.113Z,50.31
2024-04-13T07:51:07.182Z,50.77
2024-04-13T07:52:07.255Z,50.67
2024-04-13T07:53:07.341Z,50.00
2024-04-13T07:54:07.418Z,50.95
2024-04-13T07:55:07.476Z,50.00
2024-04-13T07:56:07.563Z,50.00
2024-04-13T07:57:07.629Z,52.18
2024-04-13T07:58:07.719Z,51.70
2024-04-13T07:59:07.805Z,52.42
2024-04-13T08:00:07.972Z,52.09
2024-04-13T08:01:08.052Z,52.40
2024-04-13T08:02:08.097Z,51.78
2024-04-13T08:03:08.170Z,51.87
2024-04-13T08:04:08.291Z,51.78
2024-04-13T08:05:08.368Z,51.17
2024-04-13T08:06:08.379Z,50.95
2024-04-13T08:07:08.505Z,51.97
2024-04-13T08:08:08.548Z,51.52
2024-04-13T08:09:08.668Z,51.47
2024-04-13T08:10:08.735Z,50.56
2024-04-13T08:11:08.834Z,53.39
2024-04-13T08:12:08.912Z,51.98
2024-04-13T08:13:09.026Z,51.26
2024-04-13T08:14:10.124Z,52.96
2024-04-13T08:15:09.115Z,52.82
2024-04-13T08:16:09.187Z,52.27
2024-04-13T08:17:09.207Z,51.77
2024-04-13T08:18:09.307Z,51.60
2024-04-13T08:19:09.303Z,51.20
2024-04-13T08:20:09.349Z,51.46
2024-04-13T08:21:09.371Z,52.23
2024-04-13T08:22:09.458Z,51.62
2024-04-13T08:23:09.567Z,52.60
2024-04-13T08:24:09.638Z,52.95
2024-04-13T08:25:09.770Z,52.47
2024-04-13T08:26:09.877Z,52.53
2024-04-13T08:27:09.956Z,52.56
2024-04-13T08:28:10.087Z,52.85
2024-04-13T08:29:10.157Z,52.76
2024-04-13T08:30:11.152Z,52.14
2024-04-13T08:31:10.338Z,52.33
2024-04-13T08:32:10.395Z,52.02
2024-04-13T08:33:10.447Z,53.45
2024-04-13T08:34:10.472Z,52.31
2024-04-13T08:35:10.521Z,51.08
2024-04-13T08:36:10.541Z,52.67
2024-04-13T08:37:10.594Z,52.39
2024-04-13T08:38:12.946Z,51.35
2024-04-13T08:39:10.737Z,54.53
2024-04-13T08:40:10.658Z,52.79
2024-04-13T08:41:10.651Z,53.06
2024-04-13T08:42:10.651Z,51.51
2024-04-13T08:43:10.664Z,52.37
2024-04-13T08:44:13.937Z,53.58
2024-04-13T08:45:10.674Z,53.70
2024-04-13T08:46:10.674Z,53.98
2024-04-13T08:47:10.671Z,53.50
2024-04-13T08:48:10.778Z,53.74
2024-04-13T08:49:10.726Z,53.05
2024-04-13T08:50:12.682Z,51.70
2024-04-13T08:51:10.708Z,52.12
2024-04-13T08:52:10.690Z,52.61
2024-04-13T08:53:10.656Z,51.95
2024-04-13T08:54:10.712Z,50.29
2024-04-13T08:55:10.695Z,51.04
2024-04-13T08:56:12.411Z,50.81
2024-04-13T08:57:10.793Z,50.00
2024-04-13T08:58:10.858Z,51.71
2024-04-13T08:59:10.902Z,52.74
2024-04-13T09:00:11.033Z,50.64
2024-04-13T09:01:11.013Z,50.40
2024-04-13T09:02:12.476Z,53.32
2024-04-13T09:03:11.131Z,50.61
2024-04-13T09:04:11.153Z,51.15
2024-04-13T09:05:11.097Z,52.17
2024-04-13T09:06:11.191Z,50.00
2024-04-13T09:07:11.179Z,51.65
2024-04-13T09:08:11.216Z,51.17
2024-04-13T09:09:11.310Z,51.15
2024-04-13T09:10:11.421Z,50.00
2024-04-13T09:11:11.592Z,52.72
2024-04-13T09:12:11.700Z,51.01
2024-04-13T09:13:11.721Z,50.97
2024-04-13T09:14:11.827Z,51.61
2024-04-13T09:15:11.952Z,50.36
2024-04-13T09:16:12.089Z,50.44
2024-04-13T09:17:12.179Z,51.10
2024-04-13T09:18:12.378Z,50.45
2024-04-13T09:19:12.375Z,51.05
2024-04-13T09:20:12.457Z,51.74
2024-04-13T09:21:12.584Z,50.91
2024-04-13T09:22:12.689Z,51.62
2024-04-13T09:23:12.789Z,51.59
2024-04-13T09:24:13.130Z,51.65
2024-04-13T09:25:15.465Z,51.23
2024-04-13T09:26:13.145Z,51.44
2024-04-13T09:27:13.192Z,51.14
2024-04-13T09:28:13.173Z,52.14
2024-04-13T09:29:13.363Z,51.03
2024-04-13T09:30:13.331Z,51.71
2024-04-13T09:31:13.356Z,50.77
2024-04-13T09:32:13.461Z,51.04
2024-04-13T09:33:13.443Z,50.69
2024-04-13T09:34:13.425Z,50.57
2024-04-13T09:35:13.456Z,50.57
2024-04-13T09:36:13.540Z,50.96
2024-04-13T09:37:13.639Z,51.00
2024-04-13T09:38:13.738Z,50.43
2024-04-13T09:39:13.885Z,52.18
2024-04-13T09:40:13.999Z,51.49
2024-04-13T09:41:14.096Z,51.29
2024-04-13T09:42:14.299Z,52.07
2024-04-13T09:43:14.321Z,51.53
2024-04-13T09:44:14.434Z,50.94
2024-04-13T09:45:14.564Z,51.92
2024-04-13T09:46:14.662Z,51.07
2024-04-13T09:47:14.783Z,51.20
2024-04-13T09:48:14.961Z,50.67
2024-04-13T09:49:15.041Z,51.16
2024-04-13T09:50:15.101Z,51.18
2024-04-13T09:51:15.249Z,52.50
2024-04-13T09:52:15.343Z,50.72
2024-04-13T09:53:15.451Z,51.78
2024-04-13T09:54:15.584Z,51.90
2024-04-13T09:55:15.668Z,51.29
2024-04-13T09:56:15.760Z,51.24
2024-04-13T09:57:15.904Z,51.18
2024-04-13T09:58:15.993Z,51.39
2024-04-13T09:59:16.078Z,50.72
2024-04-13T10:00:16.236Z,51.92
2024-04-13T10:01:16.372Z,51.67
2024-04-13T10:02:16.505Z,52.63
2024-04-13T10:03:16.697Z,53.65
2024-04-13T10:04:16.729Z,51.63
2024-04-13T10:05:16.742Z,54.34
2024-04-13T10:06:16.979Z,53.48
2024-04-13T10:07:16.957Z,52.55
2024-04-13T10:08:17.066Z,52.72
2024-04-13T10:09:17.184Z,53.16
2024-04-13T10:10:17.299Z,53.81
2024-04-13T10:11:17.428Z,54.04
2024-04-13T10:12:17.472Z,53.86
2024-04-13T10:13:17.592Z,53.44
2024-04-13T10:14:17.704Z,53.60
2024-04-13T10:15:17.876Z,53.84
2024-04-13T10:16:17.908Z,54.86
2024-04-13T10:17:18.023Z,54.34
2024-04-13T10:18:18.135Z,54.13
2024-04-13T10:19:18.259Z,52.50
2024-04-13T10:20:18.320Z,53.93
2024-04-13T10:21:18.411Z,55.21
2024-04-13T10:22:27.991Z,55.61
2024-04-13T10:23:19.542Z,55.67
2024-04-13T10:24:18.579Z,52.99
2024-04-13T10:25:18.520Z,53.65
2024-04-13T10:26:18.526Z,54.38
2024-04-13T10:27:18.595Z,55.60
2024-04-13T10:28:18.511Z,55.44
2024-04-13T10:29:18.552Z,53.93
2024-04-13T10:30:18.532Z,55.20
2024-04-13T10:31:18.575Z,53.71
2024-04-13T10:32:18.531Z,53.32
2024-04-13T10:33:18.552Z,55.72
2024-04-13T10:34:18.619Z,51.61
2024-04-13T10:35:18.696Z,54.62
2024-04-13T10:36:18.836Z,54.73
2024-04-13T10:37:18.917Z,53.52
2024-04-13T10:38:18.998Z,53.66
2024-04-13T10:39:19.158Z,53.94
2024-04-13T10:40:19.183Z,55.75
2024-04-13T10:41:19.286Z,54.29
2024-04-13T10:42:19.436Z,55.59
2024-04-13T10:43:19.471Z,54.97
2024-04-13T10:44:19.550Z,52.03
2024-04-13T10:45:19.791Z,55.55
2024-04-13T10:46:19.737Z,55.34
2024-04-13T10:47:19.866Z,53.48
2024-04-13T10:48:20.003Z,52.71
2024-04-13T10:49:20.068Z,55.21
2024-04-13T10:50:20.103Z,51.95
2024-04-13T10:51:20.197Z,55.71
2024-04-13T10:52:20.257Z,55.18
2024-04-13T10:53:20.379Z,51.33
2024-04-13T10:54:20.479Z,55.39
2024-04-13T10:55:20.602Z,56.85
2024-04-13T10:56:20.600Z,54.77
2024-04-13T10:57:20.784Z,53.94
2024-04-13T10:58:20.817Z,55.27
2024-04-13T10:59:20.879Z,55.60
2024-04-13T11:00:21.050Z,55.67
2024-04-13T11:01:21.150Z,52.39
2024-04-13T11:02:21.194Z,55.44
2024-04-13T11:03:21.317Z,54.12
2024-04-13T11:04:21.334Z,54.19
2024-04-13T11:05:21.575Z,54.11
2024-04-13T11:06:21.492Z,50.75
2024-04-13T11:07:21.579Z,55.58
2024-04-13T11:08:21.644Z,57.29
2024-04-13T11:09:21.770Z,55.37
2024-04-13T11:10:21.815Z,54.25
2024-04-13T11:11:22.000Z,56.72
2024-04-13T11:12:22.034Z,58.21
2024-04-13T11:13:22.100Z,54.00
2024-04-13T11:14:22.162Z,54.34
2024-04-13T11:15:22.270Z,55.76
2024-04-13T11:16:22.325Z,55.86
2024-04-13T11:17:22.420Z,58.14
2024-04-13T11:18:22.675Z,58.49
2024-04-13T11:19:22.606Z,54.81
2024-04-13T11:20:22.559Z,56.59
2024-04-13T11:21:22.671Z,54.43
2024-04-13T11:22:22.676Z,57.46
2024-04-13T11:23:22.699Z,54.64
2024-04-13T11:24:22.735Z,55.69
2024-04-13T11:25:23.677Z,56.14
2024-04-13T11:26:22.802Z,55.96
2024-04-13T11:27:22.895Z,57.45
2024-04-13T11:28:22.902Z,54.96
2024-04-13T11:29:22.940Z,58.08
2024-04-13T11:30:23.012Z,57.47
2024-04-13T11:31:23.038Z,55.77
2024-04-13T11:32:23.105Z,55.71
2024-04-13T11:33:23.120Z,56.90
2024-04-13T11:34:23.133Z,55.85
2024-04-13T11:35:23.214Z,56.88
2024-04-13T11:36:23.337Z,54.28
2024-04-13T11:37:23.382Z,58.88
2024-04-13T11:38:23.447Z,57.18
2024-04-13T11:39:23.519Z,55.73
2024-04-13T11:40:23.621Z,57.03
2024-04-13T11:41:23.692Z,58.57
2024-04-13T11:42:29.371Z,59.13
2024-04-13T11:43:24.788Z,59.17
2024-04-13T11:44:23.768Z,59.60
2024-04-13T11:45:23.757Z,59.50
2024-04-13T11:46:23.759Z,57.62
2024-04-13T11:47:23.783Z,61.60
2024-04-13T11:48:23.929Z,56.60
2024-04-13T11:49:23.850Z,56.65
2024-04-13T11:50:23.835Z,58.38
2024-04-13T11:51:23.859Z,56.94
2024-04-13T11:52:23.811Z,58.78
2024-04-13T11:53:23.835Z,57.36
2024-04-13T11:54:23.856Z,59.92
2024-04-13T11:55:23.834Z,60.10
2024-04-13T11:56:23.880Z,62.36
2024-04-13T11:57:23.954Z,58.80
2024-04-13T11:58:24.031Z,59.24
2024-04-13T11:59:24.104Z,59.93
2024-04-13T12:00:24.186Z,60.60
2024-04-13T12:01:24.306Z,60.16
2024-04-13T12:02:24.388Z,59.23
2024-04-13T12:03:24.445Z,61.75
2024-04-13T12:04:24.596Z,59.88
2024-04-13T12:05:24.570Z,58.71
2024-04-13T12:06:24.654Z,62.20
2024-04-13T12:07:24.749Z,60.08
2024-04-13T12:08:24.833Z,60.53
2024-04-13T12:09:24.917Z,62.83
2024-04-13T12:10:25.015Z,60.01
2024-04-13T12:11:25.104Z,58.30
2024-04-13T12:12:25.135Z,60.47
2024-04-13T12:13:25.214Z,60.60
2024-04-13T12:14:26.440Z,62.17
2024-04-13T12:15:25.371Z,61.59
2024-04-13T12:16:25.374Z,60.06
2024-04-13T12:17:25.470Z,59.89
2024-04-13T12:18:25.561Z,63.67
2024-04-13T12:19:25.614Z,59.25
2024-04-13T12:20:25.635Z,60.66
2024-04-13T12:21:25.779Z,59.24
2024-04-13T12:22:25.774Z,63.12
2024-04-13T12:23:25.898Z,63.29
2024-04-13T12:24:26.004Z,63.01
2024-04-13T12:25:26.177Z,61.19
2024-04-13T12:26:26.124Z,62.79
2024-04-13T12:27:26.254Z,64.11
2024-04-13T12:28:26.302Z,61.95
2024-04-13T12:29:26.375Z,62.34
2024-04-13T12:30:26.491Z,62.84
2024-04-13T12:31:26.557Z,62.66
2024-04-13T12:32:26.713Z,62.41
2024-04-13T12:33:26.763Z,62.26
2024-04-13T12:34:26.796Z,67.36
2024-04-13T12:35:26.897Z,64.78
2024-04-13T12:36:26.995Z,63.18
2024-04-13T12:37:27.116Z,65.27
2024-04-13T12:38:27.132Z,66.06
2024-04-13T12:39:27.259Z,65.32
2024-04-13T12:40:27.311Z,63.49
2024-04-13T12:41:27.394Z,63.07
2024-04-13T12:42:27.501Z,65.57
2024-04-13T12:43:27.560Z,63.55
2024-04-13T12:44:27.660Z,66.10
2024-04-13T12:45:27.828Z,64.07
2024-04-13T12:46:27.815Z,61.79
2024-04-13T12:47:27.923Z,64.25
2024-04-13T12:48:28.086Z,65.76
2024-04-13T12:49:28.090Z,63.85
2024-04-13T12:50:28.165Z,65.91
2024-04-13T12:51:28.314Z,60.12
2024-04-13T12:52:28.357Z,64.56
2024-04-13T12:53:28.452Z,61.16